createdAt,value
2022-11-02T00:02:59.852Z,9.83
2022-11-02T00:06:03.963Z,10.53
2022-11-02T00:09:11.164Z,10.30
2022-11-02T00:12:15.292Z,10.37
2022-11-02T00:15:19.865Z,10.87
2022-11-02T00:18:24.454Z,11.33
2022-11-02T00:21:30.024Z,9.77
2022-11-02T00:24:35.725Z,9.93
2022-11-02T00:27:40.566Z,10.83
2022-11-02T00:30:45.608Z,10.47
2022-11-02T00:33:49.703Z,10.57
2022-11-02T00:36:55.678Z,9.97
2022-11-02T00:40:01.592Z,9.43
2022-11-02T00:43:06.446Z,9.60
2022-11-02T00:46:10.753Z,9.80
2022-11-02T00:49:15.389Z,9.73
2022-11-02T00:52:19.425Z,9.53
2022-11-02T00:55:28.586Z,10.67
2022-11-02T00:58:37.724Z,9.70
2022-11-02T01:01:47.528Z,9.87
2022-11-02T01:04:51.703Z,10.53
2022-11-02T01:07:57.333Z,10.30
2022-11-02T01:11:15.324Z,10.13
2022-11-02T01:14:19.374Z,10.47
2022-11-02T01:17:23.536Z,10.77
2022-11-02T01:20:27.454Z,10.17
2022-11-02T01:23:34.365Z,9.67
2022-11-02T01:26:39.852Z,9.00
2022-11-02T01:29:44.024Z,10.87
2022-11-02T01:32:48.144Z,9.73
2022-11-02T01:35:52.298Z,10.40
2022-11-02T01:38:57.304Z,10.30
2022-11-02T01:42:02.974Z,10.43
2022-11-02T01:45:08.113Z,11.80
2022-11-02T01:48:12.394Z,10.10
2022-11-02T01:51:21.223Z,10.37
2022-11-02T01:54:28.463Z,10.23
2022-11-02T01:57:35.186Z,10.37
2022-11-02T02:00:39.686Z,11.63
2022-11-02T02:03:45.164Z,11.57
2022-11-02T02:06:51.323Z,11.13
2022-11-02T02:09:57.525Z,11.93
2022-11-02T02:13:04.945Z,11.77
2022-11-02T02:16:17.584Z,10.37
2022-11-02T02:19:34.476Z,11.10
2022-11-02T02:23:03.705Z,11.20
2022-11-02T02:26:43.907Z,10.23
2022-11-02T02:30:06.353Z,10.33
2022-11-02T02:33:14.873Z,10.80
2022-11-02T02:36:26.213Z,11.60
2022-11-02T02:39:36.404Z,11.07
2022-11-02T02:42:45.924Z,11.30
2022-11-02T02:45:55.984Z,11.33
2022-11-02T02:49:01.174Z,11.37
2022-11-02T02:52:06.044Z,11.10
2022-11-02T02:55:17.883Z,12.90
2022-11-02T02:58:26.033Z,11.30
2022-11-02T03:01:32.663Z,11.90
2022-11-02T03:04:38.783Z,11.70
2022-11-02T03:07:50.324Z,11.47
2022-11-02T03:11:00.434Z,11.57
2022-11-02T03:14:16.706Z,10.43
2022-11-02T03:17:30.532Z,11.43
2022-11-02T03:20:45.763Z,11.03
2022-11-02T03:23:56.747Z,10.47
2022-11-02T03:27:12.331Z,9.97
2022-11-02T03:30:19.695Z,10.60
2022-11-02T03:33:35.572Z,10.63
2022-11-02T03:36:47.324Z,10.83
2022-11-02T03:39:55.886Z,10.60
2022-11-02T03:43:02.393Z,10.93
2022-11-02T03:46:10.187Z,11.20
2022-11-02T03:49:20.255Z,10.40
2022-11-02T03:52:31.051Z,10.73
2022-11-02T03:55:39.013Z,10.67
2022-11-02T03:58:43.294Z,10.27
2022-11-02T04:01:51.028Z,11.23
2022-11-02T04:04:58.604Z,11.13
2022-11-02T04:08:20.673Z,10.50
2022-11-02T04:11:44.046Z,11.13
2022-11-02T04:14:51.103Z,11.70
2022-11-02T04:18:13.055Z,11.20
2022-11-02T04:21:19.284Z,11.33
2022-11-02T04:24:40.414Z,10.90
2022-11-02T04:27:45.184Z,10.40
2022-11-02T04:30:49.736Z,10.60
2022-11-02T04:33:55.953Z,9.67
2022-11-02T04:37:01.663Z,11.00
2022-11-02T04:40:05.423Z,10.10
2022-11-02T04:43:10.174Z,9.40
2022-11-02T04:46:14.974Z,9.13
2022-11-02T04:49:20.333Z,9.43
2022-11-02T04:52:26.013Z,8.90
2022-11-02T04:55:31.334Z,8.67
2022-11-02T04:58:36.721Z,9.20
2022-11-02T05:01:42.139Z,9.30
2022-11-02T05:04:46.855Z,10.00
2022-11-02T05:07:53.193Z,10.03
2022-11-02T05:10:58.484Z,11.20
2022-11-02T05:14:03.893Z,10.73
2022-11-02T05:17:08.913Z,10.80
2022-11-02T05:20:15.125Z,11.03
2022-11-02T05:23:22.653Z,10.83
2022-11-02T05:26:26.934Z,11.07
2022-11-02T05:29:31.223Z,11.50
2022-11-02T05:32:35.714Z,11.60
2022-11-02T05:35:39.934Z,11.13
2022-11-02T05:38:46.296Z,11.87
2022-11-02T05:41:50.874Z,12.33
2022-11-02T05:44:55.114Z,11.90
2022-11-02T05:48:02.804Z,13.30
2022-11-02T05:51:07.154Z,13.13
2022-11-02T05:54:12.855Z,13.30
2022-11-02T05:57:18.816Z,13.27
2022-11-02T06:00:24.504Z,13.50
2022-11-02T06:03:28.973Z,12.57
2022-11-02T06:06:34.313Z,12.07
2022-11-02T06:09:40.133Z,13.23
2022-11-02T06:12:44.743Z,12.23
2022-11-02T06:15:49.003Z,12.37
2022-11-02T06:18:53.455Z,11.93
2022-11-02T06:21:58.314Z,12.87
2022-11-02T06:25:03.893Z,11.53
2022-11-02T06:28:08.164Z,11.57
2022-11-02T06:31:12.415Z,10.87
2022-11-02T06:34:16.715Z,11.53
2022-11-02T06:37:20.891Z,11.90
2022-11-02T06:40:26.842Z,10.37
2022-11-02T06:43:31.436Z,10.70
2022-11-02T06:46:35.555Z,10.13
2022-11-02T06:49:39.935Z,10.00
2022-11-02T06:52:45.753Z,9.40
2022-11-02T06:55:55.508Z,8.87
2022-11-02T06:58:59.903Z,10.13
2022-11-02T07:02:04.283Z,8.73
2022-11-02T07:05:09.733Z,8.43
2022-11-02T07:08:13.796Z,9.30
2022-11-02T07:11:19.702Z,8.90
2022-11-02T07:14:23.953Z,9.27
2022-11-02T07:17:32.051Z,9.20
2022-11-02T07:20:37.174Z,9.53
2022-11-02T07:23:41.513Z,9.50
2022-11-02T07:26:50.545Z,11.10
2022-11-02T07:29:54.734Z,10.57
2022-11-02T07:32:59.048Z,9.23
2022-11-02T07:36:06.544Z,8.87
2022-11-02T07:39:11.174Z,9.03
2022-11-02T07:42:17.073Z,7.93
2022-11-02T07:45:23.113Z,8.20
2022-11-02T07:48:27.393Z,8.00
2022-11-02T07:51:31.599Z,7.53
2022-11-02T07:54:38.520Z,7.75
2022-11-02T07:57:53.981Z,8.23
2022-11-02T08:01:00.324Z,7.63
2022-11-02T08:04:04.586Z,6.72
2022-11-02T08:07:10.126Z,6.43
2022-11-02T08:10:14.583Z,6.57
2022-11-02T08:13:22.616Z,6.90
2022-11-02T08:16:27.084Z,7.13
2022-11-02T08:19:34.153Z,6.60
2022-11-02T08:22:39.510Z,7.03
2022-11-02T08:25:45.947Z,6.88
2022-11-02T08:28:51.705Z,6.53
2022-11-02T08:31:55.804Z,6.05
2022-11-02T08:35:00.109Z,9.05
2022-11-02T08:38:04.510Z,9.00
2022-11-02T08:41:08.914Z,7.95
2022-11-02T08:44:14.594Z,7.13
2022-11-02T08:47:19.255Z,8.40
2022-11-02T08:50:24.212Z,7.03
2022-11-02T08:53:28.776Z,8.02
2022-11-02T08:56:32.921Z,7.88
2022-11-02T08:59:38.656Z,8.05
2022-11-02T09:02:43.016Z,8.13
2022-11-02T09:05:49.013Z,7.65
2022-11-02T09:08:56.230Z,6.00
2022-11-02T09:12:02.236Z,6.32
2022-11-02T09:15:09.105Z,6.88
2022-11-02T09:18:13.366Z,6.93
2022-11-02T09:21:17.574Z,6.43
2022-11-02T09:24:21.853Z,8.70
2022-11-02T09:27:26.224Z,8.93
2022-11-02T09:30:31.803Z,5.07
2022-11-02T09:33:36.644Z,5.82
2022-11-02T09:36:40.764Z,5.32
2022-11-02T09:39:45.224Z,5.57
2022-11-02T09:42:59.304Z,5.75
2022-11-02T09:46:08.334Z,6.25
2022-11-02T09:49:17.013Z,6.10
2022-11-02T09:52:29.542Z,6.68
2022-11-02T09:55:37.186Z,4.85
2022-11-02T09:58:42.764Z,5.43
2022-11-02T10:02:01.515Z,5.95
2022-11-02T10:05:23.893Z,5.50
2022-11-02T10:08:40.394Z,6.18
2022-11-02T10:11:52.873Z,6.55
2022-11-02T10:15:04.164Z,6.45
2022-11-02T10:18:16.683Z,6.60
2022-11-02T10:21:23.445Z,6.07
2022-11-02T10:24:33.765Z,5.95
2022-11-02T10:27:41.136Z,5.47
2022-11-02T10:30:46.605Z,5.90
2022-11-02T10:33:54.128Z,6.60
2022-11-02T10:37:25.385Z,6.38
2022-11-02T10:40:47.895Z,6.03
2022-11-02T10:44:13.064Z,5.22
2022-11-02T10:47:20.535Z,5.35
2022-11-02T10:50:43.714Z,5.30
2022-11-02T10:53:50.463Z,5.10
2022-11-02T10:56:57.905Z,5.00
2022-11-02T11:00:24.790Z,4.22
2022-11-02T11:03:29.321Z,4.18
2022-11-02T11:06:39.314Z,6.20
2022-11-02T11:09:51.346Z,5.88
2022-11-02T11:12:57.921Z,4.18
2022-11-02T11:16:03.612Z,5.10
2022-11-02T11:22:46.504Z,5.07
2022-11-02T11:25:59.115Z,4.63
2022-11-02T11:29:03.375Z,4.25
2022-11-02T11:32:16.555Z,4.40
2022-11-02T11:35:21.904Z,4.70
2022-11-02T11:38:28.727Z,4.75
2022-11-02T11:41:35.126Z,4.30
2022-11-02T11:44:39.505Z,4.28
2022-11-02T11:47:44.714Z,4.65
2022-11-02T11:50:49.611Z,4.20
2022-11-02T11:54:22.648Z,4.25
2022-11-02T11:57:31.846Z,4.80
2022-11-02T12:00:36.129Z,3.95
2022-11-02T12:03:57.463Z,3.88
2022-11-02T12:07:20.634Z,3.85
2022-11-02T12:10:41.784Z,3.47
2022-11-02T12:13:59.684Z,3.78
2022-11-02T12:17:26.803Z,4.65
2022-11-02T12:20:47.675Z,3.55
2022-11-02T12:24:04.423Z,4.15
2022-11-02T12:27:26.174Z,3.58
2022-11-02T12:30:37.694Z,3.72
2022-11-02T12:33:58.473Z,4.35
2022-11-02T12:37:40.385Z,4.03
2022-11-02T12:40:56.664Z,3.72
2022-11-02T12:44:09.744Z,3.30
2022-11-02T12:47:28.174Z,3.83
2022-11-02T12:50:47.021Z,3.70
2022-11-02T12:53:56.395Z,3.20
2022-11-02T12:57:00.849Z,3.47
2022-11-02T13:00:09.724Z,2.67
2022-11-02T13:03:28.533Z,2.50
2022-11-02T13:06:38.794Z,2.70
2022-11-02T13:09:51.662Z,3.30
2022-11-02T13:13:00.168Z,2.67
2022-11-02T13:16:08.212Z,3.10
2022-11-02T13:19:20.243Z,2.63
2022-11-02T13:22:31.081Z,2.70
2022-11-02T13:25:38.253Z,2.55
2022-11-02T13:28:46.474Z,3.33
2022-11-02T13:31:57.174Z,2.70
2022-11-02T13:35:06.913Z,3.35
2022-11-02T13:38:26.015Z,3.17
2022-11-02T13:42:02.795Z,3.60
2022-11-02T13:45:29.294Z,3.35
2022-11-02T13:48:55.914Z,2.67
2022-11-02T13:52:04.519Z,3.33
2022-11-02T13:55:16.332Z,3.25
2022-11-02T13:58:26.383Z,3.22
2022-11-02T14:01:33.405Z,3.15
2022-11-02T14:04:43.123Z,3.40
2022-11-02T14:07:47.457Z,2.83
2022-11-02T14:11:25.173Z,2.92
2022-11-02T14:14:29.383Z,2.88
2022-11-02T14:18:04.633Z,3.38
2022-11-02T14:21:45.483Z,3.83
2022-11-02T14:25:15.052Z,4.43
2022-11-02T14:28:45.570Z,3.50
2022-11-02T14:32:02.643Z,4.15
2022-11-02T14:35:29.103Z,3.95
2022-11-02T14:38:53.604Z,4.45
2022-11-02T14:42:17.943Z,4.03
2022-11-02T14:45:46.723Z,4.25
2022-11-02T14:48:54.135Z,3.80
2022-11-02T14:52:05.994Z,4.05
2022-11-02T14:55:25.566Z,3.28
2022-11-02T14:58:37.183Z,3.22
2022-11-02T15:01:53.754Z,3.63
2022-11-02T15:05:00.801Z,4.20
2022-11-02T15:08:09.308Z,3.78
2022-11-02T15:11:50.035Z,3.88
2022-11-02T15:14:58.108Z,4.22
2022-11-02T15:18:22.865Z,3.80
2022-11-02T15:21:28.830Z,3.92
2022-11-02T15:24:35.381Z,4.05
2022-11-02T15:27:42.339Z,3.72
2022-11-02T15:30:51.541Z,4.97
2022-11-02T15:33:58.369Z,4.85
2022-11-02T15:37:03.609Z,4.60
2022-11-02T15:40:20.809Z,4.78
2022-11-02T15:43:58.066Z,4.28
2022-11-02T15:47:14.594Z,5.47
2022-11-02T15:50:48.040Z,5.68
2022-11-02T15:54:04.599Z,6.05
2022-11-02T15:57:18.609Z,6.63
2022-11-02T16:00:30.482Z,7.03
2022-11-02T16:03:36.847Z,7.53
2022-11-02T16:06:43.340Z,6.18
2022-11-02T16:09:48.410Z,5.60
2022-11-02T16:13:00.869Z,7.22
2022-11-02T16:16:08.469Z,7.10
2022-11-02T16:19:21.489Z,8.20
2022-11-02T16:22:28.174Z,7.22
2022-11-02T16:25:39.683Z,8.10
2022-11-02T16:28:49.289Z,8.70
2022-11-02T16:31:53.792Z,7.78
2022-11-02T16:35:02.597Z,8.57
2022-11-02T16:38:07.455Z,8.93
2022-11-02T16:41:12.218Z,7.93
2022-11-02T16:44:22.380Z,8.43
2022-11-02T16:47:39.991Z,7.32
2022-11-02T16:51:02.764Z,8.77
2022-11-02T16:54:31.140Z,8.38
2022-11-02T16:57:46.188Z,7.82
2022-11-02T17:01:03.656Z,6.20
2022-11-02T17:04:22.200Z,6.95
2022-11-02T17:07:32.071Z,7.03
2022-11-02T17:10:38.049Z,6.43
2022-11-02T17:13:50.639Z,7.15
2022-11-02T17:17:07.119Z,7.00
2022-11-02T17:20:24.651Z,9.35
2022-11-02T17:23:37.846Z,9.32
2022-11-02T17:26:42.368Z,9.43
2022-11-02T17:29:46.611Z,44.70
2022-11-02T17:32:51.219Z,14.57
2022-11-02T17:35:57.868Z,21.15
2022-11-02T17:39:05.914Z,11.93
2022-11-02T17:42:33.974Z,11.63
2022-11-02T17:45:39.433Z,9.40
2022-11-02T17:48:43.790Z,8.57
2022-11-02T17:51:48.835Z,8.43
2022-11-02T17:54:54.684Z,10.40
2022-11-02T17:57:59.774Z,10.35
2022-11-02T18:01:05.889Z,10.00
2022-11-02T18:04:10.143Z,10.57
2022-11-02T18:07:14.415Z,8.20
2022-11-02T18:10:21.023Z,8.15
2022-11-02T18:13:26.214Z,9.30
2022-11-02T18:16:30.904Z,8.65
2022-11-02T18:19:35.415Z,7.65
2022-11-02T18:22:40.907Z,7.43
2022-11-02T18:25:46.733Z,7.82
2022-11-02T18:28:51.055Z,6.82
2022-11-02T18:31:55.183Z,7.82
2022-11-02T18:34:59.464Z,7.45
2022-11-02T18:38:04.101Z,7.35
2022-11-02T18:41:25.371Z,8.43
2022-11-02T18:44:29.663Z,7.72
2022-11-02T18:47:33.993Z,7.88
2022-11-02T18:50:38.083Z,7.38
2022-11-02T18:53:42.463Z,7.23
2022-11-02T18:56:48.483Z,7.85
2022-11-02T18:59:52.673Z,6.45
2022-11-02T19:02:56.964Z,7.35
2022-11-02T19:06:18.373Z,6.05
2022-11-02T19:09:24.984Z,6.85
2022-11-02T19:12:32.022Z,6.60
2022-11-02T19:15:42.257Z,6.40
2022-11-02T19:18:47.042Z,5.97
2022-11-02T19:21:51.371Z,6.85
2022-11-02T19:24:55.817Z,6.65
2022-11-02T19:28:01.552Z,6.32
2022-11-02T19:31:06.912Z,6.35
2022-11-02T19:34:11.474Z,5.82
2022-11-02T19:37:16.430Z,6.03
2022-11-02T19:40:20.623Z,6.90
2022-11-02T19:43:26.684Z,6.57
2022-11-02T19:46:31.225Z,6.43
2022-11-02T19:49:35.323Z,6.30
2022-11-02T19:52:39.984Z,6.32
2022-11-02T19:55:53.326Z,6.50
2022-11-02T19:58:59.883Z,6.32
2022-11-02T20:02:04.363Z,5.65
2022-11-02T20:05:09.665Z,5.70
2022-11-02T20:08:14.022Z,5.97
2022-11-02T20:11:19.181Z,5.83
2022-11-02T20:14:24.902Z,5.93
2022-11-02T20:17:38.074Z,7.40
2022-11-02T20:20:54.001Z,6.72
2022-11-02T20:23:59.132Z,7.43
2022-11-02T20:27:06.063Z,6.77
2022-11-02T20:30:15.795Z,7.23
2022-11-02T20:33:20.124Z,6.60
2022-11-02T20:36:24.367Z,6.37
2022-11-02T20:39:28.679Z,5.80
2022-11-02T20:42:33.498Z,5.80
2022-11-02T20:45:39.418Z,5.57
2022-11-02T20:48:44.190Z,5.70
2022-11-02T20:51:48.377Z,6.33
2022-11-02T20:54:52.838Z,6.10
2022-11-02T20:58:01.821Z,6.13
2022-11-02T21:01:07.981Z,7.07
2022-11-02T21:04:18.511Z,6.30
2022-11-02T21:07:24.480Z,5.97
2022-11-02T21:10:28.791Z,6.37
2022-11-02T21:13:50.181Z,6.47
2022-11-02T21:16:56.581Z,6.30
2022-11-02T21:20:28.385Z,5.80
2022-11-02T21:23:25.212Z,5.60
2022-11-02T21:26:37.204Z,6.47
2022-11-02T21:29:41.440Z,5.23
2022-11-02T21:32:47.580Z,5.80
2022-11-02T21:35:55.763Z,5.70
2022-11-02T21:39:00.304Z,5.90
2022-11-02T21:42:05.770Z,6.07
2022-11-02T21:45:15.165Z,5.70
2022-11-02T21:48:26.172Z,4.90
2022-11-02T21:51:35.202Z,5.17
2022-11-02T21:54:43.540Z,5.10
2022-11-02T21:57:50.571Z,5.30
2022-11-02T22:01:19.753Z,4.53
2022-11-02T22:04:29.171Z,4.60
2022-11-02T22:07:53.390Z,4.77
2022-11-02T22:10:59.243Z,5.13
2022-11-02T22:14:05.750Z,5.53
2022-11-02T22:17:21.820Z,4.80
2022-11-02T22:20:37.380Z,4.60
2022-11-02T22:23:43.890Z,4.30
2022-11-02T22:26:50.361Z,4.60
2022-11-02T22:29:54.570Z,4.57
2022-11-02T22:32:58.891Z,5.10
2022-11-02T22:36:07.430Z,5.10
2022-11-02T22:39:15.629Z,4.80
2022-11-02T22:42:21.871Z,4.20
2022-11-02T22:45:29.091Z,4.80
2022-11-02T22:48:34.591Z,4.70
2022-11-02T22:51:41.750Z,4.90
2022-11-02T22:54:48.050Z,4.90
2022-11-02T22:57:59.904Z,4.17
2022-11-02T23:01:05.204Z,4.70
2022-11-02T23:04:11.909Z,4.43
2022-11-02T23:07:17.785Z,3.93
2022-11-02T23:10:35.716Z,4.63
2022-11-02T23:13:42.687Z,4.43
2022-11-02T23:16:48.749Z,4.33
2022-11-02T23:19:53.166Z,4.37
2022-11-02T23:23:19.354Z,3.70
2022-11-02T23:26:28.515Z,4.03
2022-11-02T23:29:50.025Z,3.83
2022-11-02T23:32:54.255Z,3.80
2022-11-02T23:36:12.843Z,4.20
2022-11-02T23:39:35.915Z,3.87
2022-11-02T23:42:40.435Z,3.60
2022-11-02T23:45:44.834Z,3.23
2022-11-02T23:48:52.748Z,4.40
2022-11-02T23:52:15.305Z,3.80
2022-11-02T23:55:38.154Z,3.73
2022-11-02T23:58:42.505Z,4.40
